M.izmir — 9HLE8 — position and weather

sailwx.info

Track history (hours):
 
Tides and Currents Weather Stations Pressure Air Temp Water Temp Dewpoint Dewpoint Depression Visibility Wind Speed Wind Dir Waves Ship Positions

M.izmir

Last reported at 2017-Sep-20 01:23 UTC. Time now 2017-Sep-25 06:28 UTC.
Position N 36°29' E 023°17'.

Length 112 m; draft 6.1 m.

Type: Cargo ship. MMSI: 256109000.

Date/timePositionNaut miles runAvg speedWind from/ knotsBaromVisibWave heightAir tempDewpointWater temp
2017-Sep-20 01:23N 36°29' E 023°17'9 9.6
2017-Sep-20 00:29N 36°36' E 023°22'5 9.4
2017-Sep-20 00:00N 36°40' E 023°25'4 9.2
2017-Sep-19 23:30N 36°44' E 023°28'5 9.4
2017-Sep-19 23:01N 36°48' E 023°30'5 9.4
2017-Sep-19 22:30N 36°52' E 023°33'5 9.8
2017-Sep-19 22:00N 36°57' E 023°36'5 9.4
2017-Sep-19 21:30N 37°01' E 023°39'5 9.2
2017-Sep-19 21:00N 37°05' E 023°42'5 9.0
2017-Sep-19 20:30N 37°08' E 023°45'4 8.9
2017-Sep-19 20:00N 37°12' E 023°48'5 9.0
2017-Sep-19 19:30N 37°16' E 023°52'5 9.1
2017-Sep-19 19:01N 37°20' E 023°55'5 9.4
2017-Sep-19 18:31N 37°24' E 023°57'5 9.6
2017-Sep-19 18:00N 37°28' E 024°00'20 9.7
2017-Sep-19 15:55N 37°43' E 024°17'35 9.8
2017-Sep-19 12:20N 38°11' E 024°44'310.4
2017-Sep-19 12:00N 38°14' E 024°46'710.0
2017-Sep-19 11:21N 38°21' E 024°49'3 9.9
2017-Sep-19 11:00N 38°24' E 024°50'5 9.7
2017-Sep-19 10:31N 38°28' E 024°53'110 9.7
2017-Sep-18 23:09N 40°02' E 026°09'311.9
2017-Sep-18 22:52N 40°02' E 026°13'136 5.4
2017-Sep-17 21:35N 40°59' E 028°56'0 0.9
2017-Sep-17 21:29N 40°59' E 028°56'7 8.4
2017-Sep-17 20:42N 41°03' E 029°03'129 7.3
2017-Sep-17 02:55N 43°11' E 029°34'410.5
2017-Sep-17 02:30N 43°14' E 029°37'510.6
2017-Sep-17 02:00N 43°19' E 029°40'610.3
2017-Sep-17 01:25N 43°25' E 029°42'410.4
2017-Sep-17 01:00N 43°29' E 029°43'510.4
2017-Sep-17 00:30N 43°34' E 029°44'510.2
2017-Sep-17 00:00N 43°39' E 029°45'510.2
2017-Sep-16 23:30N 43°44' E 029°47'510.3
2017-Sep-16 23:00N 43°50' E 029°48'510.4
2017-Sep-16 22:30N 43°55' E 029°49'510.3
2017-Sep-16 22:00N 43°60' E 029°50'510.3
2017-Sep-16 21:30N 44°05' E 029°51'510.4
2017-Sep-16 21:00N 44°10' E 029°52'510.4
2017-Sep-16 20:30N 44°15' E 029°53'510.3
2017-Sep-16 20:00N 44°20' E 029°54'510.1
2017-Sep-16 19:30N 44°25' E 029°54'510.2
2017-Sep-16 19:00N 44°30' E 029°55'510.0
2017-Sep-16 18:30N 44°35' E 029°55'510.2
2017-Sep-16 18:00N 44°40' E 029°55'510.2
2017-Sep-16 17:30N 44°46' E 029°55'510.1
2017-Sep-16 17:00N 44°50' E 029°54'5 9.8
2017-Sep-16 16:30N 44°55' E 029°52'5 9.7
2017-Sep-16 16:00N 44°60' E 029°50'510.0
2017-Sep-16 15:30N 45°05' E 029°48'5 8.7
2017-Sep-16 14:56N 45°09' E 029°45'4 8.7
2017-Sep-16 14:25N 45°09' E 029°39'3 8.4
2017-Sep-16 14:00N 45°10' E 029°34'4 8.4
2017-Sep-16 13:30N 45°10' E 029°28'11 7.8
2017-Sep-16 12:08N 45°11' E 029°13'1 7.7
2017-Sep-16 12:00N 45°11' E 029°11'  
2017-Sep-11 16:19N 45°12' E 028°47'0 0.0
2017-Sep-11 03:37N 45°12' E 028°47'  
Track history (hours):
 
Tides and Currents Weather Stations Pressure Air Temp Water Temp Dewpoint Dewpoint Depression Visibility Wind Speed Wind Dir Waves Ship Positions

M.izmir

Last reported at 2017-Sep-20 01:23 UTC. Time now 2017-Sep-25 06:28 UTC.
Position N 36°29' E 023°17'.

Length 112 m; draft 6.1 m.

Type: Cargo ship. MMSI: 256109000.

Date/timePositionNaut miles runAvg speedWind from/ knotsBaromVisibWave heightAir tempDewpointWater temp
2017-Sep-20 01:23N 36°29' E 023°17'9 9.6
2017-Sep-20 00:29N 36°36' E 023°22'5 9.4
2017-Sep-20 00:00N 36°40' E 023°25'4 9.2
2017-Sep-19 23:30N 36°44' E 023°28'5 9.4
2017-Sep-19 23:01N 36°48' E 023°30'5 9.4
2017-Sep-19 22:30N 36°52' E 023°33'5 9.8
2017-Sep-19 22:00N 36°57' E 023°36'5 9.4
2017-Sep-19 21:30N 37°01' E 023°39'5 9.2
2017-Sep-19 21:00N 37°05' E 023°42'5 9.0
2017-Sep-19 20:30N 37°08' E 023°45'4 8.9
2017-Sep-19 20:00N 37°12' E 023°48'5 9.0
2017-Sep-19 19:30N 37°16' E 023°52'5 9.1
2017-Sep-19 19:01N 37°20' E 023°55'5 9.4
2017-Sep-19 18:31N 37°24' E 023°57'5 9.6
2017-Sep-19 18:00N 37°28' E 024°00'20 9.7
2017-Sep-19 15:55N 37°43' E 024°17'35 9.8
2017-Sep-19 12:20N 38°11' E 024°44'310.4
2017-Sep-19 12:00N 38°14' E 024°46'710.0
2017-Sep-19 11:21N 38°21' E 024°49'3 9.9
2017-Sep-19 11:00N 38°24' E 024°50'5 9.7
2017-Sep-19 10:31N 38°28' E 024°53'110 9.7
2017-Sep-18 23:09N 40°02' E 026°09'311.9
2017-Sep-18 22:52N 40°02' E 026°13'136 5.4
2017-Sep-17 21:35N 40°59' E 028°56'0 0.9
2017-Sep-17 21:29N 40°59' E 028°56'7 8.4
2017-Sep-17 20:42N 41°03' E 029°03'129 7.3
2017-Sep-17 02:55N 43°11' E 029°34'410.5
2017-Sep-17 02:30N 43°14' E 029°37'510.6
2017-Sep-17 02:00N 43°19' E 029°40'610.3
2017-Sep-17 01:25N 43°25' E 029°42'410.4
2017-Sep-17 01:00N 43°29' E 029°43'510.4
2017-Sep-17 00:30N 43°34' E 029°44'510.2
2017-Sep-17 00:00N 43°39' E 029°45'510.2
2017-Sep-16 23:30N 43°44' E 029°47'510.3
2017-Sep-16 23:00N 43°50' E 029°48'510.4
2017-Sep-16 22:30N 43°55' E 029°49'510.3
2017-Sep-16 22:00N 43°60' E 029°50'510.3
2017-Sep-16 21:30N 44°05' E 029°51'510.4
2017-Sep-16 21:00N 44°10' E 029°52'510.4
2017-Sep-16 20:30N 44°15' E 029°53'510.3
2017-Sep-16 20:00N 44°20' E 029°54'510.1
2017-Sep-16 19:30N 44°25' E 029°54'510.2
2017-Sep-16 19:00N 44°30' E 029°55'510.0
2017-Sep-16 18:30N 44°35' E 029°55'510.2
2017-Sep-16 18:00N 44°40' E 029°55'510.2
2017-Sep-16 17:30N 44°46' E 029°55'510.1
2017-Sep-16 17:00N 44°50' E 029°54'5 9.8
2017-Sep-16 16:30N 44°55' E 029°52'5 9.7
2017-Sep-16 16:00N 44°60' E 029°50'510.0
2017-Sep-16 15:30N 45°05' E 029°48'5 8.7
2017-Sep-16 14:56N 45°09' E 029°45'4 8.7
2017-Sep-16 14:25N 45°09' E 029°39'3 8.4
2017-Sep-16 14:00N 45°10' E 029°34'4 8.4
2017-Sep-16 13:30N 45°10' E 029°28'11 7.8
2017-Sep-16 12:08N 45°11' E 029°13'1 7.7
2017-Sep-16 12:00N 45°11' E 029°11'  
2017-Sep-11 16:19N 45°12' E 028°47'0 0.0
2017-Sep-11 03:37N 45°12' E 028°47'  

Dump ship's entire track history